Time;durP1;ratioP1;P1;durP2;ratioP2;P2;SDS_P1;SDS_P2;PMS_P1;PMS_P2;Temp;Humidity;BMP_temperature;BMP_pressure;BME280_temperature;BME280_humidity;BME280_pressure;Samples;Min_cycle;Max_cycle;Signal;HPM_P1;HPM_P2
2021/12/12 00:02:07;;;;;;;;;;;;;;;6.03;72.51;101997.69;5052644;28;20058;-59
2021/12/12 00:04:35;;;;;;;;;;;;;;;6.01;71.77;101998.94;5052425;28;20031;-59
2021/12/12 00:07:04;;;;;;;;;;;;;;;6.00;71.88;101991.72;5052371;28;19924;-59
2021/12/12 00:09:31;;;;;;;;;;;;;;;5.91;72.24;102001.97;5052735;28;20000;-59
2021/12/12 00:11:58;;;;;;;;;;;;;;;5.94;72.09;101998.88;5049132;28;20047;-58
2021/12/12 00:14:29;;;;;;;;;;;;;;;5.93;72.25;101990.78;5050927;28;19974;-59
2021/12/12 00:16:55;;;;;;;;;;;;;;;5.94;72.44;101987.84;5047881;28;20023;-60
2021/12/12 00:19:21;;;;;;;;;;;;;;;5.94;72.62;101987.00;5047409;28;20023;-60
2021/12/12 00:21:47;;;;;;;;;;;;;;;5.91;72.23;101985.44;5048839;28;19921;-61
2021/12/12 00:24:13;;;;;;;;;;;;;;;5.92;72.24;101998.19;5046031;28;19924;-60
2021/12/12 00:26:38;;;;;;;;;;;;;;;5.94;72.53;101990.59;5043082;28;19929;-59
2021/12/12 00:29:05;;;;;;;;;;;;;;;5.95;72.09;101983.19;5046797;28;19925;-60
2021/12/12 00:31:30;;;;;;;;;;;;;;;5.91;72.76;101979.94;5048610;28;19964;-60
2021/12/12 00:33:56;;;;;;;;;;;;;;;5.91;72.19;101982.69;5048503;28;19967;-60
2021/12/12 00:36:23;;;;;;;;;;;;;;;5.91;72.18;101974.44;5049936;28;20704;-60
2021/12/12 00:38:50;;;;;;;;;;;;;;;5.93;72.45;101977.00;5049016;28;19929;-60
2021/12/12 00:41:19;;;;;;;;;;;;;;;5.94;72.25;101970.47;5050287;28;20283;-60
2021/12/12 00:43:48;;;;;;;;;;;;;;;5.94;72.70;101981.50;5048558;28;19931;-60
2021/12/12 00:46:14;;;;;;;;;;;;;;;5.93;72.39;101972.34;5047618;28;19928;-60
2021/12/12 00:48:41;;;;;;;;;;;;;;;5.94;72.62;101964.97;5049882;28;19921;-60
2021/12/12 00:51:08;;;;;;;;;;;;;;;5.97;72.29;101972.81;5048568;28;19934;-60
2021/12/12 00:53:34;;;;;;;;;;;;;;;5.97;72.67;101970.91;5049341;28;19931;-60
2021/12/12 00:55:59;;;;;;;;;;;;;;;5.93;72.51;101971.50;5049254;28;19920;-60
2021/12/12 00:58:27;;;;;;;;;;;;;;;5.96;72.65;101966.44;5048872;28;20474;-59
2021/12/12 01:00:55;;;;;;;;;;;;;;;5.97;72.32;101959.88;5048672;28;19974;-60
2021/12/12 01:03:22;;;;;;;;;;;;;;;5.94;72.36;101954.78;5049528;28;20379;-60
2021/12/12 01:05:49;;;;;;;;;;;;;;;5.97;72.82;101959.03;5046475;28;19921;-60
2021/12/12 01:08:15;;;;;;;;;;;;;;;6.00;72.79;101948.47;5048946;28;19959;-60
2021/12/12 01:10:44;;;;;;;;;;;;;;;6.01;72.52;101961.22;5049952;28;19990;-60
2021/12/12 01:13:09;;;;;;;;;;;;;;;5.98;73.25;101953.34;5040086;28;19921;-60
2021/12/12 01:15:36;;;;;;;;;;;;;;;5.97;72.92;101957.13;5050151;28;19939;-60
2021/12/12 01:18:07;;;;;;;;;;;;;;;5.98;72.67;101958.00;5050524;28;19967;-60
2021/12/12 01:20:32;;;;;;;;;;;;;;;5.97;72.54;101948.84;5050799;28;20341;-60
2021/12/12 01:23:01;;;;;;;;;;;;;;;5.97;73.06;101948.84;5052183;28;19921;-60
2021/12/12 01:25:28;;;;;;;;;;;;;;;5.96;72.49;101946.31;5050877;28;19952;-60
2021/12/12 01:27:54;;;;;;;;;;;;;;;5.97;72.85;101940.59;5052588;28;19944;-60
2021/12/12 01:30:20;;;;;;;;;;;;;;;5.98;73.21;101955.25;5053090;28;20372;-60
2021/12/12 01:32:47;;;;;;;;;;;;;;;5.97;72.97;101948.84;5050610;28;19925;-60
2021/12/12 01:35:17;;;;;;;;;;;;;;;5.90;73.39;101943.25;5053289;28;19917;-60
2021/12/12 01:38:50;;;;;;;;;;;;;;;5.96;72.91;101955.44;5052808;28;19921;-60
2021/12/12 01:40:30;;;;;;;;;;;;;;;5.99;73.15;101951.44;5051708;28;19925;-60
2021/12/12 01:42:58;;;;;;;;;;;;;;;5.98;72.73;101949.75;5052277;28;19925;-60
2021/12/12 01:45:25;;;;;;;;;;;;;;;6.01;72.69;101952.97;5052454;28;20388;-60
2021/12/12 01:47:59;;;;;;;;;;;;;;;6.05;72.70;101945.13;5050458;28;19925;-60
2021/12/12 01:50:29;;;;;;;;;;;;;;;6.02;72.91;101949.16;5050312;28;20281;-60
2021/12/12 01:52:56;;;;;;;;;;;;;;;6.02;73.43;101951.91;5051816;28;19944;-60
2021/12/12 01:55:26;;;;;;;;;;;;;;;6.03;72.89;101953.59;5051912;28;19967;-60
2021/12/12 01:57:53;;;;;;;;;;;;;;;6.05;72.84;101945.13;5051369;28;19929;-61
2021/12/12 02:00:47;;;;;;;;;;;;;;;6.02;73.25;101940.03;5052348;28;19946;-60
2021/12/12 02:03:14;;;;;;;;;;;;;;;6.04;73.13;101948.94;5018234;28;20389;-61
2021/12/12 02:05:39;;;;;;;;;;;;;;;6.04;73.23;101941.50;5051890;28;19916;-60
2021/12/12 02:08:09;;;;;;;;;;;;;;;6.08;73.30;101947.50;5054934;28;19921;-60
2021/12/12 02:10:38;;;;;;;;;;;;;;;6.07;73.66;101941.13;5056492;28;19921;-60
2021/12/12 02:13:05;;;;;;;;;;;;;;;6.09;73.60;101943.69;5056202;28;19944;-60
2021/12/12 02:15:32;;;;;;;;;;;;;;;6.11;72.55;101939.69;5054726;28;19929;-60
2021/12/12 02:17:58;;;;;;;;;;;;;;;6.12;73.34;101938.63;5055175;28;19921;-60
2021/12/12 02:20:36;;;;;;;;;;;;;;;6.14;73.44;101936.53;5055116;28;19988;-60
2021/12/12 02:23:19;;;;;;;;;;;;;;;6.14;73.22;101936.53;5054521;28;19990;-60
2021/12/12 02:36:44;;;;;;;;;;;;;;;6.14;73.64;101930.19;5042627;28;19944;-60
2021/12/12 02:39:15;;;;;;;;;;;;;;;6.17;73.60;101938.06;5055874;28;19921;-60
2021/12/12 02:41:42;;;;;;;;;;;;;;;6.17;73.72;101931.66;5055807;28;19925;-60
2021/12/12 02:44:07;;;;;;;;;;;;;;;6.19;73.07;101918.56;5055015;28;19964;-60
2021/12/12 02:46:35;;;;;;;;;;;;;;;6.17;73.32;101906.84;5053475;28;19979;-60
2021/12/12 02:49:22;;;;;;;;;;;;;;;6.17;73.19;101909.59;5055686;28;19923;-60
2021/12/12 02:51:47;;;;;;;;;;;;;;;6.15;73.19;101891.38;5053902;28;19921;-60
2021/12/12 02:54:12;;;;;;;;;;;;;;;6.17;74.48;101898.59;5055376;28;19959;-60
2021/12/12 02:56:40;;;;;;;;;;;;;;;6.11;74.36;101900.25;5054695;28;20292;-60
2021/12/12 02:59:07;;;;;;;;;;;;;;;6.11;74.83;101900.25;5055122;28;19920;-60
2021/12/12 03:01:38;;;;;;;;;;;;;;;6.13;73.99;101896.25;5054248;28;20295;-60
2021/12/12 03:04:04;;;;;;;;;;;;;;;6.11;74.50;101895.59;5054547;28;19921;-60
2021/12/12 03:06:33;;;;;;;;;;;;;;;6.10;74.53;101901.31;5054867;28;19974;-60
2021/12/12 03:09:01;;;;;;;;;;;;;;;6.09;73.86;101892.19;5053855;28;20011;-60
2021/12/12 03:11:28;;;;;;;;;;;;;;;6.09;74.85;101902.31;5073154;28;20367;-60
2021/12/12 03:13:53;;;;;;;;;;;;;;;6.10;74.62;101893.03;5065493;28;20387;-60
2021/12/12 03:16:19;;;;;;;;;;;;;;;6.13;75.46;101893.50;5052172;28;19991;-60
2021/12/12 03:18:45;;;;;;;;;;;;;;;6.11;75.20;101890.06;5053359;28;19935;-60
2021/12/12 03:21:16;;;;;;;;;;;;;;;6.11;75.26;101895.59;5055021;28;19920;-60
2021/12/12 03:23:51;;;;;;;;;;;;;;;6.09;74.81;101892.19;5054648;28;20418;-60
2021/12/12 03:26:17;;;;;;;;;;;;;;;6.10;75.47;101882.84;5052844;28;20271;-60
2021/12/12 03:28:44;;;;;;;;;;;;;;;6.11;75.23;101876.28;5054579;28;20011;-60
2021/12/12 03:31:12;;;;;;;;;;;;;;;6.11;76.07;101883.72;5053732;28;19925;-60
2021/12/12 03:33:37;;;;;;;;;;;;;;;6.08;75.69;101881.34;5053713;28;20360;-60
2021/12/12 03:36:04;;;;;;;;;;;;;;;6.04;75.89;101861.59;5054633;28;19928;-60
2021/12/12 03:38:30;;;;;;;;;;;;;;;6.05;76.00;101856.91;5053718;28;20364;-60
2021/12/12 03:40:57;;;;;;;;;;;;;;;6.07;75.38;101874.97;5053835;28;19923;-60
2021/12/12 03:43:23;;;;;;;;;;;;;;;6.09;75.78;101870.13;5053509;28;19921;-60
2021/12/12 03:45:49;;;;;;;;;;;;;;;6.09;75.48;101878.41;5052529;28;19975;-60
2021/12/12 03:48:23;;;;;;;;;;;;;;;6.11;76.27;101857.00;5053491;28;20361;-60
2021/12/12 03:50:49;;;;;;;;;;;;;;;6.05;76.05;101860.56;5048314;28;19924;-60
2021/12/12 03:53:15;;;;;;;;;;;;;;;6.06;76.25;101864.16;5053651;28;20102;-60
2021/12/12 03:55:41;;;;;;;;;;;;;;;6.11;76.88;101870.78;5052938;28;20390;-61
2021/12/12 03:58:07;;;;;;;;;;;;;;;6.12;75.67;101857.84;5053891;28;19920;-62
2021/12/12 04:00:44;;;;;;;;;;;;;;;6.15;76.07;101865.72;5053019;28;19920;-60
2021/12/12 04:03:09;;;;;;;;;;;;;;;6.19;75.38;101857.91;5039992;28;19920;-60
2021/12/12 04:05:35;;;;;;;;;;;;;;;6.20;75.94;101857.69;5053405;28;20070;-60
2021/12/12 04:08:00;;;;;;;;;;;;;;;6.21;76.30;101864.94;5053706;28;19967;-60
2021/12/12 04:10:25;;;;;;;;;;;;;;;6.23;76.67;101868.31;5052951;28;19916;-60
2021/12/12 04:12:52;;;;;;;;;;;;;;;6.28;75.36;101862.22;5053842;28;19921;-61
2021/12/12 04:15:17;;;;;;;;;;;;;;;6.32;75.63;101874.53;5051933;28;19924;-60
2021/12/12 04:17:43;;;;;;;;;;;;;;;6.32;75.52;101864.34;5053212;28;19920;-60
2021/12/12 04:20:11;;;;;;;;;;;;;;;6.34;75.32;101875.22;5053173;28;20264;-60
2021/12/12 04:22:36;;;;;;;;;;;;;;;6.36;75.14;101881.34;5052124;28;19921;-60
2021/12/12 04:25:02;;;;;;;;;;;;;;;6.36;75.91;101881.34;5052829;28;20019;-60
2021/12/12 04:27:27;;;;;;;;;;;;;;;6.35;75.94;101876.91;5053931;28;20008;-60
2021/12/12 04:29:54;;;;;;;;;;;;;;;6.35;75.55;101880.50;5050009;28;20014;-60
2021/12/12 04:32:20;;;;;;;;;;;;;;;6.35;76.11;101879.66;5053123;28;20462;-60
2021/12/12 04:34:49;;;;;;;;;;;;;;;6.37;76.21;101878.41;5053895;28;20272;-61
2021/12/12 04:37:15;;;;;;;;;;;;;;;6.41;76.17;101883.53;5051173;28;20378;-60
2021/12/12 04:39:41;;;;;;;;;;;;;;;6.41;75.43;101878.88;5053809;28;19956;-60
2021/12/12 04:42:21;;;;;;;;;;;;;;;6.40;75.97;101877.16;5052694;28;19920;-60
2021/12/12 04:44:48;;;;;;;;;;;;;;;6.43;74.97;101874.00;5052682;28;19927;-60
2021/12/12 04:50:01;;;;;;;;;;;;;;;6.37;76.32;101880.31;5037023;28;19991;-60
2021/12/12 04:52:46;;;;;;;;;;;;;;;6.33;76.64;101873.50;5033902;28;20395;-60
2021/12/12 04:55:25;;;;;;;;;;;;;;;6.37;76.87;101877.56;5024302;28;19960;-60
2021/12/12 04:57:55;;;;;;;;;;;;;;;6.39;76.39;101876.28;5051157;28;20380;-60
2021/12/12 05:00:23;;;;;;;;;;;;;;;6.41;76.19;101881.63;5053198;28;19928;-60
2021/12/12 05:02:51;;;;;;;;;;;;;;;6.44;76.16;101883.97;5052118;28;19975;-60
2021/12/12 05:05:18;;;;;;;;;;;;;;;6.45;76.50;101888.44;5050691;28;19928;-60
2021/12/12 05:07:47;;;;;;;;;;;;;;;6.45;76.80;101885.69;5052318;28;19928;-60
2021/12/12 05:10:17;;;;;;;;;;;;;;;6.47;76.99;101889.09;5052819;28;19916;-60
2021/12/12 05:12:48;;;;;;;;;;;;;;;6.50;76.14;101896.97;5032880;28;20361;-60
2021/12/12 05:15:15;;;;;;;;;;;;;;;6.51;76.26;101890.38;5043469;28;19927;-60
2021/12/12 05:17:43;;;;;;;;;;;;;;;6.54;75.97;101891.91;5050540;28;19978;-60
2021/12/12 05:20:20;;;;;;;;;;;;;;;6.54;75.76;101894.66;5053372;28;20248;-60
2021/12/12 05:22:48;;;;;;;;;;;;;;;6.57;76.48;101891.50;5050754;28;19975;-60
2021/12/12 05:25:18;;;;;;;;;;;;;;;6.59;76.05;101900.41;5051028;28;20016;-60
2021/12/12 05:27:43;;;;;;;;;;;;;;;6.61;75.63;101901.94;5051816;28;20050;-60
2021/12/12 05:30:14;;;;;;;;;;;;;;;6.63;75.72;101896.19;5053346;28;19982;-60
2021/12/12 05:32:40;;;;;;;;;;;;;;;6.63;75.74;101898.97;5051288;28;19920;-60
2021/12/12 05:35:07;;;;;;;;;;;;;;;6.64;75.54;101900.66;5051835;28;20000;-60
2021/12/12 05:37:33;;;;;;;;;;;;;;;6.63;76.46;101898.97;5052481;28;20376;-60
2021/12/12 05:40:01;;;;;;;;;;;;;;;6.64;76.86;101897.91;5052424;28;19927;-60
2021/12/12 05:42:27;;;;;;;;;;;;;;;6.67;75.89;101899.41;5056271;28;19929;-59
2021/12/12 05:44:53;;;;;;;;;;;;;;;6.67;77.51;101899.41;5056254;28;20376;-60
2021/12/12 05:47:18;;;;;;;;;;;;;;;6.64;76.49;101909.81;5053653;28;19974;-59
2021/12/12 05:49:44;;;;;;;;;;;;;;;6.63;76.65;101908.09;5055964;28;19928;-60
2021/12/12 05:52:11;;;;;;;;;;;;;;;6.66;76.08;101904.09;5042809;28;19967;-60
2021/12/12 05:54:36;;;;;;;;;;;;;;;6.68;76.29;101912.16;5051240;28;19921;-60
2021/12/12 05:57:03;;;;;;;;;;;;;;;6.68;76.38;101912.16;5054485;28;19929;-60
2021/12/12 05:59:28;;;;;;;;;;;;;;;6.70;76.93;101918.31;5055519;28;19929;-60
2021/12/12 06:01:55;;;;;;;;;;;;;;;6.71;76.20;101911.75;5055136;28;19928;-60
2021/12/12 06:04:20;;;;;;;;;;;;;;;6.76;76.53;101926.66;5055411;28;20011;-60
2021/12/12 06:06:46;;;;;;;;;;;;;;;6.78;75.90;101923.69;5055589;28;20011;-60
2021/12/12 06:09:12;;;;;;;;;;;;;;;6.79;76.34;101933.66;5056174;28;20007;-60
2021/12/12 06:11:38;;;;;;;;;;;;;;;6.78;76.59;101918.16;5056058;28;19925;-60
2021/12/12 06:14:05;;;;;;;;;;;;;;;6.80;76.59;101927.13;5054638;28;19920;-60
2021/12/12 06:16:31;;;;;;;;;;;;;;;6.82;76.44;101930.50;5055289;28;19990;-60
2021/12/12 06:19:04;;;;;;;;;;;;;;;6.82;77.51;101928.59;5055885;28;19928;-60
2021/12/12 06:21:29;;;;;;;;;;;;;;;6.81;76.91;101939.84;5054701;28;19921;-60
2021/12/12 06:23:55;;;;;;;;;;;;;;;6.83;76.69;101932.19;5055895;28;19924;-60
2021/12/12 06:26:22;;;;;;;;;;;;;;;6.85;76.28;101935.63;5054358;28;19970;-60
2021/12/12 06:28:48;;;;;;;;;;;;;;;6.87;77.09;101933.50;5053968;28;20021;-60
2021/12/12 06:31:14;;;;;;;;;;;;;;;6.86;77.20;101924.38;5054892;28;20004;-59
2021/12/12 06:33:39;;;;;;;;;;;;;;;6.89;76.96;101917.59;5055601;28;20015;-60
2021/12/12 06:36:06;;;;;;;;;;;;;;;6.88;76.86;101933.31;5054610;28;19999;-60
2021/12/12 06:38:32;;;;;;;;;;;;;;;6.91;76.58;101929.28;5055575;28;20310;-59
2021/12/12 06:40:58;;;;;;;;;;;;;;;6.92;76.89;101919.97;5055963;28;19928;-59
2021/12/12 06:43:23;;;;;;;;;;;;;;;6.93;76.71;101921.66;5054064;28;19920;-60
2021/12/12 06:45:48;;;;;;;;;;;;;;;6.94;76.87;101926.13;5053979;28;19931;-59
2021/12/12 06:48:14;;;;;;;;;;;;;;;6.95;76.41;101933.34;5055843;28;19943;-60
2021/12/12 06:50:40;;;;;;;;;;;;;;;6.96;76.54;101931.47;5053599;28;19929;-59
2021/12/12 06:53:06;;;;;;;;;;;;;;;6.94;76.96;101934.41;5052360;28;19924;-59
2021/12/12 06:55:32;;;;;;;;;;;;;;;6.95;77.10;101929.72;5053888;28;19921;-59
2021/12/12 06:57:57;;;;;;;;;;;;;;;6.96;77.60;101943.34;5054577;28;20330;-59
2021/12/12 07:00:24;;;;;;;;;;;;;;;6.98;76.68;101940.38;5041552;28;19964;-60
2021/12/12 07:02:50;;;;;;;;;;;;;;;6.97;77.47;101936.75;5054755;28;19921;-60
2021/12/12 07:05:18;;;;;;;;;;;;;;;7.00;77.08;101936.38;5054644;28;20283;-60
2021/12/12 07:07:44;;;;;;;;;;;;;;;7.01;77.32;101940.81;5054371;28;19921;-59
2021/12/12 07:10:10;;;;;;;;;;;;;;;7.02;77.34;101939.75;5054561;28;20375;-60
2021/12/12 07:12:35;;;;;;;;;;;;;;;7.03;77.50;101930.41;5053439;28;19921;-59
2021/12/12 07:15:01;;;;;;;;;;;;;;;7.06;77.78;101937.44;5054643;28;20381;-60
2021/12/12 07:17:27;;;;;;;;;;;;;;;7.06;77.71;101943.81;5053493;28;20313;-60
2021/12/12 07:19:53;;;;;;;;;;;;;;;7.08;77.32;101943.63;5054875;28;19921;-60
2021/12/12 07:22:18;;;;;;;;;;;;;;;7.11;77.08;101948.72;5054458;28;20343;-60
2021/12/12 07:24:43;;;;;;;;;;;;;;;7.11;77.20;101940.44;5052551;28;19921;-60
2021/12/12 07:27:09;;;;;;;;;;;;;;;7.13;77.18;101947.47;5054769;28;19994;-60
2021/12/12 07:29:35;;;;;;;;;;;;;;;7.13;77.17;101944.72;5054999;28;19921;-60
2021/12/12 07:32:01;;;;;;;;;;;;;;;7.16;76.95;101942.63;5052900;28;19921;-60
2021/12/12 07:34:27;;;;;;;;;;;;;;;7.16;77.87;101937.94;5054296;28;19921;-60
2021/12/12 07:36:54;;;;;;;;;;;;;;;7.16;77.88;101940.72;5054874;28;20314;-60
2021/12/12 07:39:22;;;;;;;;;;;;;;;7.16;77.89;101945.38;5053637;28;19917;-60
2021/12/12 07:41:48;;;;;;;;;;;;;;;7.17;77.75;101944.31;5054246;28;19921;-60
2021/12/12 07:44:14;;;;;;;;;;;;;;;7.16;77.52;101945.38;5053852;28;20257;-60
2021/12/12 07:46:40;;;;;;;;;;;;;;;7.17;77.81;101950.69;5041599;28;20011;-60
2021/12/12 07:49:05;;;;;;;;;;;;;;;7.20;78.10;101964.09;5054416;28;19959;-60
2021/12/12 07:51:32;;;;;;;;;;;;;;;7.19;78.06;101956.00;5050612;28;19928;-60
2021/12/12 07:53:59;;;;;;;;;;;;;;;7.19;77.39;101956.88;5043945;28;20057;-60
2021/12/12 07:56:27;;;;;;;;;;;;;;;7.21;77.76;101953.91;5052854;28;19947;-60
2021/12/12 07:58:52;;;;;;;;;;;;;;;7.21;77.52;101948.38;5053971;28;19920;-60
2021/12/12 08:01:19;;;;;;;;;;;;;;;7.19;79.14;101961.50;5053440;28;20429;-60
2021/12/12 08:03:44;;;;;;;;;;;;;;;7.18;79.16;101965.34;5053688;28;20015;-60
2021/12/12 08:06:11;;;;;;;;;;;;;;;7.19;78.78;101967.03;5052071;28;20066;-60
2021/12/12 08:08:36;;;;;;;;;;;;;;;7.21;78.73;101962.19;5051732;28;20384;-59
2021/12/12 08:11:03;;;;;;;;;;;;;;;7.22;78.74;101972.16;5053928;28;19927;-59
2021/12/12 08:13:29;;;;;;;;;;;;;;;7.22;78.37;101974.91;5051630;28;20043;-60
2021/12/12 08:15:55;;;;;;;;;;;;;;;7.24;78.55;101972.81;5052427;28;19951;-60
2021/12/12 08:18:20;;;;;;;;;;;;;;;7.26;78.81;101987.25;5054078;28;19917;-60
2021/12/12 08:20:48;;;;;;;;;;;;;;;7.29;78.11;101984.94;5052019;28;20332;-60
2021/12/12 08:23:14;;;;;;;;;;;;;;;7.32;78.94;101991.97;5043762;28;20398;-61
2021/12/12 08:25:41;;;;;;;;;;;;;;;7.33;79.75;101988.16;5049281;28;20645;-60
2021/12/12 08:28:07;;;;;;;;;;;;;;;7.33;78.39;101988.16;5050046;28;20384;-59
2021/12/12 08:30:33;;;;;;;;;;;;;;;7.35;78.50;101999.88;5052614;28;19974;-59
2021/12/12 08:32:59;;;;;;;;;;;;;;;7.37;79.00;102000.50;5051613;28;20011;-59
2021/12/12 08:35:25;;;;;;;;;;;;;;;7.38;78.83;102007.72;5051236;28;20035;-59
2021/12/12 08:37:50;;;;;;;;;;;;;;;7.38;79.85;102007.72;5052383;28;19925;-59
2021/12/12 08:40:18;;;;;;;;;;;;;;;7.38;78.94;102003.03;5052430;28;20011;-59
2021/12/12 08:42:44;;;;;;;;;;;;;;;7.41;79.24;102007.31;5049796;28;20398;-59
2021/12/12 08:45:11;;;;;;;;;;;;;;;7.42;79.39;102008.16;5050115;28;19960;-59
2021/12/12 08:47:37;;;;;;;;;;;;;;;7.43;79.04;102016.28;5050222;28;19921;-59
2021/12/12 08:50:06;;;;;;;;;;;;;;;7.46;78.68;102009.47;5051724;28;19970;-59
2021/12/12 08:52:36;;;;;;;;;;;;;;;7.45;78.83;102014.16;5051675;28;19932;-59
2021/12/12 08:55:02;;;;;;;;;;;;;;;7.45;78.68;102008.63;5045660;28;19933;-59
2021/12/12 08:57:38;;;;;;;;;;;;;;;7.45;79.02;102014.16;5049322;28;20019;-59
2021/12/12 09:00:07;;;;;;;;;;;;;;;7.49;79.26;102022.88;5051015;28;20042;-57
2021/12/12 09:02:33;;;;;;;;;;;;;;;7.50;78.00;102022.66;5049961;28;19974;-57
2021/12/12 09:05:00;;;;;;;;;;;;;;;7.51;79.41;102024.38;5051828;28;20000;-58
2021/12/12 09:07:35;;;;;;;;;;;;;;;7.53;78.87;102032.47;5051962;28;19927;-58
2021/12/12 09:10:06;;;;;;;;;;;;;;;7.55;78.77;102019.31;5049626;28;20019;-58
2021/12/12 09:12:35;;;;;;;;;;;;;;;7.57;79.30;102018.03;5046032;28;19921;-60
2021/12/12 09:15:08;;;;;;;;;;;;;;;7.65;79.27;102024.44;5049110;28;19925;-59
2021/12/12 09:17:41;;;;;;;;;;;;;;;7.66;78.94;102034.44;5047228;28;19920;-58
2021/12/12 09:20:13;;;;;;;;;;;;;;;7.68;78.73;102035.94;5052064;28;19964;-58
2021/12/12 09:22:44;;;;;;;;;;;;;;;7.69;78.20;102037.66;5052290;28;19927;-58
2021/12/12 09:25:34;;;;;;;;;;;;;;;7.69;79.39;102047.84;5051033;28;19921;-58
2021/12/12 09:28:08;;;;;;;;;;;;;;;7.68;78.55;102051.69;5051601;28;20007;-58
2021/12/12 09:30:34;;;;;;;;;;;;;;;7.71;78.69;102051.28;5051456;28;20299;-58
2021/12/12 09:33:04;;;;;;;;;;;;;;;7.71;79.80;102054.03;5049809;28;19968;-58
2021/12/12 09:35:29;;;;;;;;;;;;;;;7.71;81.00;102054.03;5049189;28;19920;-58
2021/12/12 09:37:59;;;;;;;;;;;;;;;7.66;80.02;102054.63;5046624;28;19921;-59
2021/12/12 09:40:27;;;;;;;;;;;;;;;7.67;79.96;102055.50;5051355;28;19966;-59
2021/12/12 09:42:58;;;;;;;;;;;;;;;7.69;80.24;102059.75;5048619;28;19975;-58
2021/12/12 09:45:24;;;;;;;;;;;;;;;7.70;79.38;102058.69;5047497;28;19987;-61
2021/12/12 09:51:14;;;;;;;;;;;;;;;7.74;79.82;102073.84;5046325;28;20023;-60
2021/12/12 09:53:58;;;;;;;;;;;;;;;7.76;80.54;102071.69;5046345;28;19928;-61
2021/12/12 09:56:42;;;;;;;;;;;;;;;7.76;81.19;102076.38;5048474;28;20402;-61
2021/12/12 09:59:26;;;;;;;;;;;;;;;7.76;79.63;102070.84;5049966;28;19921;-61
2021/12/12 10:01:51;;;;;;;;;;;;;;;7.79;80.84;102067.69;5048537;28;19932;-61
2021/12/12 10:04:21;;;;;;;;;;;;;;;7.81;80.11;102073.84;5051180;28;19921;-61
2021/12/12 10:07:19;;;;;;;;;;;;;;;7.83;79.72;102071.75;5045948;28;19921;-61
2021/12/12 10:09:51;;;;;;;;;;;;;;;7.82;80.64;102078.31;5046839;28;20352;-61
2021/12/12 10:12:19;;;;;;;;;;;;;;;7.83;80.32;102071.75;5047931;28;19925;-61
2021/12/12 10:14:48;;;;;;;;;;;;;;;7.83;80.86;102072.59;5047052;28;19929;-61
2021/12/12 10:17:28;;;;;;;;;;;;;;;7.85;79.46;102066.84;5045178;28;19974;-61
2021/12/12 10:20:02;;;;;;;;;;;;;;;7.86;80.11;102066.66;5049575;28;19921;-60
2021/12/12 10:22:33;;;;;;;;;;;;;;;7.89;80.89;102070.91;5047821;28;20042;-61
2021/12/12 10:25:10;;;;;;;;;;;;;;;7.87;80.51;102076.66;5047863;28;19921;-61
2021/12/12 10:27:35;;;;;;;;;;;;;;;7.89;80.08;102076.44;5046621;28;20007;-60
2021/12/12 10:30:06;;;;;;;;;;;;;;;7.90;80.05;102067.09;5049907;28;20011;-60
2021/12/12 10:32:34;;;;;;;;;;;;;;;7.91;80.60;102068.81;5048558;28;19994;-60
2021/12/12 10:35:02;;;;;;;;;;;;;;;7.93;80.53;102076.88;5052350;28;19921;-61
2021/12/12 10:37:31;;;;;;;;;;;;;;;7.93;80.24;102080.50;5050780;28;20027;-61
2021/12/12 10:39:59;;;;;;;;;;;;;;;7.95;80.30;102070.09;5051927;28;19921;-61
2021/12/12 10:42:29;;;;;;;;;;;;;;;7.97;80.10;102079.03;5051234;28;19924;-61
2021/12/12 10:44:57;;;;;;;;;;;;;;;8.00;80.08;102073.09;5050402;28;19920;-60
2021/12/12 10:47:30;;;;;;;;;;;;;;;8.01;80.69;102076.69;5051196;28;19983;-62
2021/12/12 10:49:56;;;;;;;;;;;;;;;8.02;80.12;102075.66;5045332;28;20300;-62
2021/12/12 10:52:41;;;;;;;;;;;;;;;8.04;80.04;102073.53;5052655;28;20249;-61
2021/12/12 10:55:09;;;;;;;;;;;;;;;8.06;79.96;102072.28;5038305;28;19921;-62
2021/12/12 10:57:36;;;;;;;;;;;;;;;8.07;80.75;102073.97;5050631;28;19928;-62
2021/12/12 11:00:08;;;;;;;;;;;;;;;8.07;80.40;102076.72;5052142;28;19939;-63
2021/12/12 11:02:36;;;;;;;;;;;;;;;8.09;80.57;102077.38;5049516;28;19936;-62
2021/12/12 11:05:13;;;;;;;;;;;;;;;8.12;80.44;102076.09;5058918;28;19920;-62
2021/12/12 11:07:43;;;;;;;;;;;;;;;8.12;80.32;102079.72;5051734;28;19921;-61
2021/12/12 11:10:11;;;;;;;;;;;;;;;8.12;80.40;102078.88;5055789;28;19952;-61
2021/12/12 11:12:46;;;;;;;;;;;;;;;8.15;80.55;102075.69;5053620;28;20019;-60
2021/12/12 11:15:14;;;;;;;;;;;;;;;8.17;80.28;102075.47;5054239;28;19920;-60
2021/12/12 11:17:43;;;;;;;;;;;;;;;8.20;79.90;102072.31;5053995;28;19920;-60
2021/12/12 11:20:18;;;;;;;;;;;;;;;8.22;80.00;102067.44;5051747;28;19929;-60
2021/12/12 11:22:48;;;;;;;;;;;;;;;8.24;80.32;102065.31;5047200;28;19980;-61
2021/12/12 11:25:36;;;;;;;;;;;;;;;8.24;80.39;102063.38;5057572;28;20379;-62
2021/12/12 11:28:11;;;;;;;;;;;;;;;8.27;80.34;102064.88;5052270;28;20351;-62
2021/12/12 11:30:56;;;;;;;;;;;;;;;8.29;79.68;102069.16;5048981;28;19943;-62
2021/12/12 11:33:23;;;;;;;;;;;;;;;8.28;80.60;102064.66;5051986;28;19927;-62
2021/12/12 11:35:51;;;;;;;;;;;;;;;8.28;80.85;102061.91;5054765;28;19925;-62
2021/12/12 11:38:30;;;;;;;;;;;;;;;8.29;80.66;102062.75;5057146;28;20012;-62
2021/12/12 11:41:15;;;;;;;;;;;;;;;8.31;80.15;102068.94;5043544;28;20011;-61
2021/12/12 11:43:42;;;;;;;;;;;;;;;8.32;80.64;102071.50;5051458;28;20402;-61
2021/12/12 11:46:28;;;;;;;;;;;;;;;8.35;79.92;102067.47;5056493;28;19920;-61
2021/12/12 11:49:16;;;;;;;;;;;;;;;8.36;80.03;102069.16;5052642;28;19936;-61
2021/12/12 11:51:43;;;;;;;;;;;;;;;8.39;80.14;102071.56;5042740;28;19920;-61
2021/12/12 11:54:16;;;;;;;;;;;;;;;8.40;81.60;102066.88;5054005;28;19928;-62
2021/12/12 11:56:45;;;;;;;;;;;;;;;8.38;80.69;102069.84;5057615;28;19939;-62
2021/12/12 11:59:22;;;;;;;;;;;;;;;8.40;80.66;102059.41;5054595;28;20251;-61
2021/12/12 12:01:47;;;;;;;;;;;;;;;8.42;80.62;102070.28;5046067;28;19972;-62
2021/12/12 12:04:12;;;;;;;;;;;;;;;8.43;80.33;102061.75;5051352;28;19963;-61
2021/12/12 12:06:40;;;;;;;;;;;;;;;8.43;81.47;102067.31;5052491;28;19966;-61
2021/12/12 12:09:28;;;;;;;;;;;;;;;8.45;80.44;102067.97;5051606;28;19995;-61
2021/12/12 12:11:59;;;;;;;;;;;;;;;8.47;81.03;102063.06;5045403;28;19929;-60
2021/12/12 12:14:33;;;;;;;;;;;;;;;8.49;81.01;102076.66;5044316;28;19925;-60
2021/12/12 12:17:14;;;;;;;;;;;;;;;8.51;80.80;102078.16;5047160;28;19925;-60
2021/12/12 12:19:47;;;;;;;;;;;;;;;8.52;80.23;102082.63;5048043;28;20019;-60
2021/12/12 12:22:20;;;;;;;;;;;;;;;8.53;81.15;102087.13;5044789;28;19967;-60
2021/12/12 12:25:01;;;;;;;;;;;;;;;8.55;80.29;102082.22;5048085;28;19925;-60
2021/12/12 12:27:43;;;;;;;;;;;;;;;8.57;80.78;102082.03;5046789;28;19924;-60
2021/12/12 12:30:27;;;;;;;;;;;;;;;8.58;80.63;102081.81;5050858;28;19928;-61
2021/12/12 12:33:11;;;;;;;;;;;;;;;8.59;80.19;102086.28;5047308;28;20364;-61
2021/12/12 12:36:05;;;;;;;;;;;;;;;8.62;80.65;102082.25;5046483;28;19921;-61
2021/12/12 12:39:06;;;;;;;;;;;;;;;8.70;81.70;102086.72;5047719;28;19921;-61
2021/12/12 12:41:57;;;;;;;;;;;;;;;8.78;81.56;102092.91;4983656;28;19926;-59
2021/12/12 12:44:41;;;;;;;;;;;;;;;8.80;81.46;102096.34;5046778;28;20011;-60
2021/12/12 12:47:24;;;;;;;;;;;;;;;8.79;81.25;102094.63;5046892;28;19932;-59
2021/12/12 12:50:08;;;;;;;;;;;;;;;8.80;81.62;102090.81;5043945;28;19924;-60
2021/12/12 12:52:51;;;;;;;;;;;;;;;8.81;80.91;102088.88;5048549;28;19932;-60
2021/12/12 12:55:29;;;;;;;;;;;;;;;8.80;81.58;102085.25;5042385;28;20050;-60
2021/12/12 12:58:06;;;;;;;;;;;;;;;8.82;80.88;102102.50;5048411;28;20003;-60
2021/12/12 13:00:34;;;;;;;;;;;;;;;8.82;80.53;102104.41;5048642;28;20596;-60
2021/12/12 13:03:10;;;;;;;;;;;;;;;8.83;80.85;102104.19;5046123;28;19920;-60
2021/12/12 13:05:54;;;;;;;;;;;;;;;8.85;81.84;102106.78;5048538;28;19927;-60
2021/12/12 13:08:38;;;;;;;;;;;;;;;8.83;81.39;102103.34;5047874;28;19929;-60
2021/12/12 13:11:06;;;;;;;;;;;;;;;8.87;81.14;102101.00;5047170;28;20368;-60
2021/12/12 13:13:36;;;;;;;;;;;;;;;8.88;81.22;102097.16;5048855;28;20070;-61
2021/12/12 13:16:03;;;;;;;;;;;;;;;8.88;81.64;102092.47;5042585;28;19924;-61
2021/12/12 13:18:43;;;;;;;;;;;;;;;8.89;80.94;102099.75;5048950;28;19943;-60